sensor_id;sensor_type;location;lat;lon;timestamp;temperature;humidity
13322;DHT22;6730;46.248;6.930;2023-11-21T00:02:20;8.20;99.90
13322;DHT22;6730;46.248;6.930;2023-11-21T00:04:47;8.40;99.90
13322;DHT22;6730;46.248;6.930;2023-11-21T00:07:13;8.40;99.90
13322;DHT22;6730;46.248;6.930;2023-11-21T00:09:39;8.50;99.90
13322;DHT22;6730;46.248;6.930;2023-11-21T00:12:04;8.50;99.90
13322;DHT22;6730;46.248;6.930;2023-11-21T00:14:30;8.40;99.90
13322;DHT22;6730;46.248;6.930;2023-11-21T00:16:56;8.40;99.90
13322;DHT22;6730;46.248;6.930;2023-11-21T00:19:21;8.30;99.90
13322;DHT22;6730;46.248;6.930;2023-11-21T00:21:47;8.00;99.90
13322;DHT22;6730;46.248;6.930;2023-11-21T00:24:12;7.90;99.90
13322;DHT22;6730;46.248;6.930;2023-11-21T00:26:42;8.00;99.90
13322;DHT22;6730;46.248;6.930;2023-11-21T00:29:07;7.90;99.90
13322;DHT22;6730;46.248;6.930;2023-11-21T00:31:36;7.80;99.90
13322;DHT22;6730;46.248;6.930;2023-11-21T00:34:05;7.70;99.90
13322;DHT22;6730;46.248;6.930;2023-11-21T00:36:31;7.90;99.90
13322;DHT22;6730;46.248;6.930;2023-11-21T00:38:58;7.90;99.90
13322;DHT22;6730;46.248;6.930;2023-11-21T00:41:24;8.00;99.90
13322;DHT22;6730;46.248;6.930;2023-11-21T00:43:53;7.80;99.90
13322;DHT22;6730;46.248;6.930;2023-11-21T00:46:19;7.60;99.90
13322;DHT22;6730;46.248;6.930;2023-11-21T00:48:44;7.50;99.90
13322;DHT22;6730;46.248;6.930;2023-11-21T00:51:10;7.30;99.90
13322;DHT22;6730;46.248;6.930;2023-11-21T00:53:36;7.30;99.90
13322;DHT22;6730;46.248;6.930;2023-11-21T00:56:01;7.30;99.90
13322;DHT22;6730;46.248;6.930;2023-11-21T00:58:28;7.30;99.90
13322;DHT22;6730;46.248;6.930;2023-11-21T01:00:53;7.20;99.90
13322;DHT22;6730;46.248;6.930;2023-11-21T01:03:19;7.10;99.90
13322;DHT22;6730;46.248;6.930;2023-11-21T01:05:45;7.30;99.90
13322;DHT22;6730;46.248;6.930;2023-11-21T01:08:11;7.60;99.90
13322;DHT22;6730;46.248;6.930;2023-11-21T01:10:37;7.60;99.90
13322;DHT22;6730;46.248;6.930;2023-11-21T01:13:03;7.60;99.90
13322;DHT22;6730;46.248;6.930;2023-11-21T01:15:36;7.60;99.90
13322;DHT22;6730;46.248;6.930;2023-11-21T01:18:01;7.40;99.90
13322;DHT22;6730;46.248;6.930;2023-11-21T01:20:27;7.30;99.90
13322;DHT22;6730;46.248;6.930;2023-11-21T01:22:53;7.30;99.90
13322;DHT22;6730;46.248;6.930;2023-11-21T01:25:19;7.20;99.90
13322;DHT22;6730;46.248;6.930;2023-11-21T01:27:46;7.20;99.90
13322;DHT22;6730;46.248;6.930;2023-11-21T01:30:12;7.20;99.90
13322;DHT22;6730;46.248;6.930;2023-11-21T01:32:38;7.20;99.90
13322;DHT22;6730;46.248;6.930;2023-11-21T01:35:05;7.20;99.90
13322;DHT22;6730;46.248;6.930;2023-11-21T01:37:32;7.20;99.90
13322;DHT22;6730;46.248;6.930;2023-11-21T01:39:59;7.20;99.90
13322;DHT22;6730;46.248;6.930;2023-11-21T01:42:24;7.20;99.90
13322;DHT22;6730;46.248;6.930;2023-11-21T01:44:50;7.40;99.90
13322;DHT22;6730;46.248;6.930;2023-11-21T01:47:16;7.40;99.90
13322;DHT22;6730;46.248;6.930;2023-11-21T01:49:45;7.40;99.90
13322;DHT22;6730;46.248;6.930;2023-11-21T01:52:12;7.40;99.90
13322;DHT22;6730;46.248;6.930;2023-11-21T01:54:38;7.40;99.90
13322;DHT22;6730;46.248;6.930;2023-11-21T01:57:04;7.40;99.90
13322;DHT22;6730;46.248;6.930;2023-11-21T01:59:36;7.40;99.90
13322;DHT22;6730;46.248;6.930;2023-11-21T02:02:06;7.60;99.90
13322;DHT22;6730;46.248;6.930;2023-11-21T02:04:36;7.70;99.90
13322;DHT22;6730;46.248;6.930;2023-11-21T02:07:02;7.80;99.90
13322;DHT22;6730;46.248;6.930;2023-11-21T02:09:31;7.80;99.90
13322;DHT22;6730;46.248;6.930;2023-11-21T02:11:58;7.90;99.90
13322;DHT22;6730;46.248;6.930;2023-11-21T02:14:27;8.00;99.90
13322;DHT22;6730;46.248;6.930;2023-11-21T02:16:54;7.90;99.90
13322;DHT22;6730;46.248;6.930;2023-11-21T02:19:22;7.90;99.90
13322;DHT22;6730;46.248;6.930;2023-11-21T02:21:56;7.80;99.90
13322;DHT22;6730;46.248;6.930;2023-11-21T02:24:28;7.70;99.90
13322;DHT22;6730;46.248;6.930;2023-11-21T02:26:54;7.60;99.90
13322;DHT22;6730;46.248;6.930;2023-11-21T02:29:20;7.50;99.90
13322;DHT22;6730;46.248;6.930;2023-11-21T02:31:54;7.40;99.90
13322;DHT22;6730;46.248;6.930;2023-11-21T02:34:20;7.40;99.90
13322;DHT22;6730;46.248;6.930;2023-11-21T02:36:46;7.40;99.90
13322;DHT22;6730;46.248;6.930;2023-11-21T02:39:15;7.40;99.90
13322;DHT22;6730;46.248;6.930;2023-11-21T02:41:42;7.40;99.90
13322;DHT22;6730;46.248;6.930;2023-11-21T02:44:09;7.30;99.90
13322;DHT22;6730;46.248;6.930;2023-11-21T02:46:36;7.30;99.90
13322;DHT22;6730;46.248;6.930;2023-11-21T02:49:03;7.30;99.90
13322;DHT22;6730;46.248;6.930;2023-11-21T02:51:29;7.20;99.90
13322;DHT22;6730;46.248;6.930;2023-11-21T02:53:55;7.20;99.90
13322;DHT22;6730;46.248;6.930;2023-11-21T02:56:25;7.10;99.90
13322;DHT22;6730;46.248;6.930;2023-11-21T02:58:52;7.10;99.90
13322;DHT22;6730;46.248;6.930;2023-11-21T03:01:17;7.10;99.90
13322;DHT22;6730;46.248;6.930;2023-11-21T03:03:43;7.10;99.90
13322;DHT22;6730;46.248;6.930;2023-11-21T03:06:09;7.20;99.90
13322;DHT22;6730;46.248;6.930;2023-11-21T03:08:35;7.30;99.90
13322;DHT22;6730;46.248;6.930;2023-11-21T03:11:01;7.60;99.90
13322;DHT22;6730;46.248;6.930;2023-11-21T03:13:29;7.70;99.90
13322;DHT22;6730;46.248;6.930;2023-11-21T03:15:54;7.90;99.90
13322;DHT22;6730;46.248;6.930;2023-11-21T03:18:21;7.80;99.90
13322;DHT22;6730;46.248;6.930;2023-11-21T03:20:53;7.60;99.90
13322;DHT22;6730;46.248;6.930;2023-11-21T03:23:18;7.70;99.90
13322;DHT22;6730;46.248;6.930;2023-11-21T03:25:44;7.60;99.90
13322;DHT22;6730;46.248;6.930;2023-11-21T03:28:10;7.50;99.90
13322;DHT22;6730;46.248;6.930;2023-11-21T03:30:36;7.30;99.90
13322;DHT22;6730;46.248;6.930;2023-11-21T03:33:02;7.30;99.90
13322;DHT22;6730;46.248;6.930;2023-11-21T03:35:27;7.30;99.90
13322;DHT22;6730;46.248;6.930;2023-11-21T03:37:53;7.20;99.90
13322;DHT22;6730;46.248;6.930;2023-11-21T03:40:19;7.30;99.90
13322;DHT22;6730;46.248;6.930;2023-11-21T03:42:46;7.30;99.90
13322;DHT22;6730;46.248;6.930;2023-11-21T03:45:12;7.40;99.90
13322;DHT22;6730;46.248;6.930;2023-11-21T03:47:41;7.50;99.90
13322;DHT22;6730;46.248;6.930;2023-11-21T03:50:07;7.40;99.90
13322;DHT22;6730;46.248;6.930;2023-11-21T03:52:34;7.50;99.90
13322;DHT22;6730;46.248;6.930;2023-11-21T03:55:00;7.50;99.90
13322;DHT22;6730;46.248;6.930;2023-11-21T03:57:26;7.50;99.90
13322;DHT22;6730;46.248;6.930;2023-11-21T03:59:53;7.40;99.90
13322;DHT22;6730;46.248;6.930;2023-11-21T04:02:19;7.50;99.90
13322;DHT22;6730;46.248;6.930;2023-11-21T04:04:45;7.60;99.90
13322;DHT22;6730;46.248;6.930;2023-11-21T04:07:10;7.80;99.90
13322;DHT22;6730;46.248;6.930;2023-11-21T04:09:36;7.80;99.90
13322;DHT22;6730;46.248;6.930;2023-11-21T04:12:02;7.80;99.90
13322;DHT22;6730;46.248;6.930;2023-11-21T04:14:28;7.80;99.90
13322;DHT22;6730;46.248;6.930;2023-11-21T04:16:54;7.80;99.90
13322;DHT22;6730;46.248;6.930;2023-11-21T04:19:20;7.70;99.90
13322;DHT22;6730;46.248;6.930;2023-11-21T04:21:46;7.70;99.90
13322;DHT22;6730;46.248;6.930;2023-11-21T04:24:11;7.50;99.90
13322;DHT22;6730;46.248;6.930;2023-11-21T04:26:37;7.50;99.90
13322;DHT22;6730;46.248;6.930;2023-11-21T04:29:03;7.80;99.90
13322;DHT22;6730;46.248;6.930;2023-11-21T04:31:30;8.10;99.90
13322;DHT22;6730;46.248;6.930;2023-11-21T04:33:57;8.10;99.90
13322;DHT22;6730;46.248;6.930;2023-11-21T04:36:23;8.10;99.90
13322;DHT22;6730;46.248;6.930;2023-11-21T04:38:48;8.20;99.90
13322;DHT22;6730;46.248;6.930;2023-11-21T04:41:14;8.10;99.90
13322;DHT22;6730;46.248;6.930;2023-11-21T04:43:39;8.00;99.90
13322;DHT22;6730;46.248;6.930;2023-11-21T04:46:05;8.20;99.90
13322;DHT22;6730;46.248;6.930;2023-11-21T04:48:32;8.30;99.90
13322;DHT22;6730;46.248;6.930;2023-11-21T04:50:58;8.40;99.90
13322;DHT22;6730;46.248;6.930;2023-11-21T04:53:24;8.30;99.90
13322;DHT22;6730;46.248;6.930;2023-11-21T04:55:49;8.40;99.90
13322;DHT22;6730;46.248;6.930;2023-11-21T04:58:15;8.40;99.90
13322;DHT22;6730;46.248;6.930;2023-11-21T05:00:41;8.20;99.90
13322;DHT22;6730;46.248;6.930;2023-11-21T05:03:07;7.90;99.90
13322;DHT22;6730;46.248;6.930;2023-11-21T05:05:33;8.00;99.90
13322;DHT22;6730;46.248;6.930;2023-11-21T05:08:01;8.00;99.90
13322;DHT22;6730;46.248;6.930;2023-11-21T05:10:27;8.00;99.90
13322;DHT22;6730;46.248;6.930;2023-11-21T05:12:54;8.10;99.90
13322;DHT22;6730;46.248;6.930;2023-11-21T05:15:21;8.20;99.90
13322;DHT22;6730;46.248;6.930;2023-11-21T05:17:47;8.20;99.90
13322;DHT22;6730;46.248;6.930;2023-11-21T05:20:17;8.30;99.90
13322;DHT22;6730;46.248;6.930;2023-11-21T05:22:49;8.40;99.90
13322;DHT22;6730;46.248;6.930;2023-11-21T05:25:16;8.20;99.90
13322;DHT22;6730;46.248;6.930;2023-11-21T05:27:44;7.90;99.90
13322;DHT22;6730;46.248;6.930;2023-11-21T05:30:10;7.70;99.90
13322;DHT22;6730;46.248;6.930;2023-11-21T05:32:38;7.70;99.90
13322;DHT22;6730;46.248;6.930;2023-11-21T05:35:04;7.60;99.90
13322;DHT22;6730;46.248;6.930;2023-11-21T05:37:35;7.60;99.90
13322;DHT22;6730;46.248;6.930;2023-11-21T05:40:01;7.70;99.90
13322;DHT22;6730;46.248;6.930;2023-11-21T05:42:32;7.80;99.90
13322;DHT22;6730;46.248;6.930;2023-11-21T05:44:58;8.00;99.90
13322;DHT22;6730;46.248;6.930;2023-11-21T05:47:43;7.80;99.90
13322;DHT22;6730;46.248;6.930;2023-11-21T05:50:12;7.70;99.90
13322;DHT22;6730;46.248;6.930;2023-11-21T05:52:40;7.70;99.90
13322;DHT22;6730;46.248;6.930;2023-11-21T05:55:06;7.70;99.90
13322;DHT22;6730;46.248;6.930;2023-11-21T05:57:34;7.80;99.90
13322;DHT22;6730;46.248;6.930;2023-11-21T06:00:05;8.00;99.90
13322;DHT22;6730;46.248;6.930;2023-11-21T06:02:45;8.00;99.90
13322;DHT22;6730;46.248;6.930;2023-11-21T06:05:11;7.90;99.90
13322;DHT22;6730;46.248;6.930;2023-11-21T06:07:37;7.80;99.90
13322;DHT22;6730;46.248;6.930;2023-11-21T06:10:07;7.70;99.90
13322;DHT22;6730;46.248;6.930;2023-11-21T06:12:37;7.60;99.90
13322;DHT22;6730;46.248;6.930;2023-11-21T06:15:04;7.60;99.90
13322;DHT22;6730;46.248;6.930;2023-11-21T06:17:37;7.50;99.90
13322;DHT22;6730;46.248;6.930;2023-11-21T06:20:04;7.50;99.90
13322;DHT22;6730;46.248;6.930;2023-11-21T06:22:38;7.60;99.90
13322;DHT22;6730;46.248;6.930;2023-11-21T06:25:05;7.90;99.90
13322;DHT22;6730;46.248;6.930;2023-11-21T06:27:43;7.90;99.90
13322;DHT22;6730;46.248;6.930;2023-11-21T06:30:10;8.10;99.90
13322;DHT22;6730;46.248;6.930;2023-11-21T06:32:37;8.30;99.90
13322;DHT22;6730;46.248;6.930;2023-11-21T06:35:04;8.50;99.90
13322;DHT22;6730;46.248;6.930;2023-11-21T06:37:30;8.50;99.90
13322;DHT22;6730;46.248;6.930;2023-11-21T06:39:58;8.30;99.90
13322;DHT22;6730;46.248;6.930;2023-11-21T06:42:24;8.20;99.90
13322;DHT22;6730;46.248;6.930;2023-11-21T06:44:51;8.30;99.90
13322;DHT22;6730;46.248;6.930;2023-11-21T06:47:23;8.40;99.90
13322;DHT22;6730;46.248;6.930;2023-11-21T06:49:52;8.30;99.90
13322;DHT22;6730;46.248;6.930;2023-11-21T06:52:18;8.20;99.90
13322;DHT22;6730;46.248;6.930;2023-11-21T06:54:44;8.00;99.90
13322;DHT22;6730;46.248;6.930;2023-11-21T06:57:11;8.10;99.90
13322;DHT22;6730;46.248;6.930;2023-11-21T06:59:36;8.30;99.90
13322;DHT22;6730;46.248;6.930;2023-11-21T07:02:04;8.50;99.90
13322;DHT22;6730;46.248;6.930;2023-11-21T07:04:33;8.60;99.90
13322;DHT22;6730;46.248;6.930;2023-11-21T07:06:58;8.60;99.90
13322;DHT22;6730;46.248;6.930;2023-11-21T07:09:24;8.70;99.90
13322;DHT22;6730;46.248;6.930;2023-11-21T07:11:52;8.80;99.90
13322;DHT22;6730;46.248;6.930;2023-11-21T07:14:17;8.80;99.90
13322;DHT22;6730;46.248;6.930;2023-11-21T07:16:45;8.40;99.90
13322;DHT22;6730;46.248;6.930;2023-11-21T07:19:11;8.10;99.90
13322;DHT22;6730;46.248;6.930;2023-11-21T07:21:37;8.10;99.90
13322;DHT22;6730;46.248;6.930;2023-11-21T07:24:05;8.20;99.90
13322;DHT22;6730;46.248;6.930;2023-11-21T07:26:32;8.30;99.90
13322;DHT22;6730;46.248;6.930;2023-11-21T07:29:01;8.60;99.90
13322;DHT22;6730;46.248;6.930;2023-11-21T07:31:28;8.70;99.90
13322;DHT22;6730;46.248;6.930;2023-11-21T07:33:54;8.70;99.90
13322;DHT22;6730;46.248;6.930;2023-11-21T07:36:23;8.60;99.90
13322;DHT22;6730;46.248;6.930;2023-11-21T07:38:48;8.20;99.90
13322;DHT22;6730;46.248;6.930;2023-11-21T07:41:15;8.10;99.90
13322;DHT22;6730;46.248;6.930;2023-11-21T07:43:42;8.40;99.90
13322;DHT22;6730;46.248;6.930;2023-11-21T07:46:07;8.70;99.90
13322;DHT22;6730;46.248;6.930;2023-11-21T07:48:34;8.30;99.90
13322;DHT22;6730;46.248;6.930;2023-11-21T07:51:01;7.80;99.90
13322;DHT22;6730;46.248;6.930;2023-11-21T07:53:29;7.60;99.90
13322;DHT22;6730;46.248;6.930;2023-11-21T07:55:56;7.10;99.90
13322;DHT22;6730;46.248;6.930;2023-11-21T07:58:21;7.00;99.90
13322;DHT22;6730;46.248;6.930;2023-11-21T08:00:47;6.70;99.90
13322;DHT22;6730;46.248;6.930;2023-11-21T08:03:16;6.60;99.90
13322;DHT22;6730;46.248;6.930;2023-11-21T08:05:42;6.50;99.90
13322;DHT22;6730;46.248;6.930;2023-11-21T08:08:08;6.40;99.90
13322;DHT22;6730;46.248;6.930;2023-11-21T08:10:34;6.30;99.90
13322;DHT22;6730;46.248;6.930;2023-11-21T08:13:01;6.20;99.90
13322;DHT22;6730;46.248;6.930;2023-11-21T08:15:27;6.30;99.90
13322;DHT22;6730;46.248;6.930;2023-11-21T08:17:52;6.40;99.90
13322;DHT22;6730;46.248;6.930;2023-11-21T08:20:19;6.70;99.90
13322;DHT22;6730;46.248;6.930;2023-11-21T08:22:45;6.60;99.90
13322;DHT22;6730;46.248;6.930;2023-11-21T08:25:10;6.60;99.90
13322;DHT22;6730;46.248;6.930;2023-11-21T08:27:36;6.40;99.90
13322;DHT22;6730;46.248;6.930;2023-11-21T08:30:03;6.20;99.90
13322;DHT22;6730;46.248;6.930;2023-11-21T08:32:29;6.20;99.90
13322;DHT22;6730;46.248;6.930;2023-11-21T08:34:57;6.40;99.90
13322;DHT22;6730;46.248;6.930;2023-11-21T08:37:23;6.50;99.90
13322;DHT22;6730;46.248;6.930;2023-11-21T08:39:49;6.40;99.90
13322;DHT22;6730;46.248;6.930;2023-11-21T08:42:15;6.40;99.90
13322;DHT22;6730;46.248;6.930;2023-11-21T08:44:41;6.40;99.90
13322;DHT22;6730;46.248;6.930;2023-11-21T08:47:07;6.40;99.90
13322;DHT22;6730;46.248;6.930;2023-11-21T08:49:32;6.40;99.90
13322;DHT22;6730;46.248;6.930;2023-11-21T08:51:58;6.50;99.90
13322;DHT22;6730;46.248;6.930;2023-11-21T08:54:25;6.50;99.90
13322;DHT22;6730;46.248;6.930;2023-11-21T08:56:54;6.70;99.90
13322;DHT22;6730;46.248;6.930;2023-11-21T08:59:20;7.00;99.90
13322;DHT22;6730;46.248;6.930;2023-11-21T09:01:47;6.80;99.90
13322;DHT22;6730;46.248;6.930;2023-11-21T09:04:13;6.70;99.90
13322;DHT22;6730;46.248;6.930;2023-11-21T09:06:39;6.70;99.90
13322;DHT22;6730;46.248;6.930;2023-11-21T09:09:05;6.50;99.90
13322;DHT22;6730;46.248;6.930;2023-11-21T09:11:34;6.30;99.90
13322;DHT22;6730;46.248;6.930;2023-11-21T09:14:01;6.20;99.90
13322;DHT22;6730;46.248;6.930;2023-11-21T09:16:27;6.10;99.90
13322;DHT22;6730;46.248;6.930;2023-11-21T09:18:52;6.20;99.90
13322;DHT22;6730;46.248;6.930;2023-11-21T09:21:18;6.20;99.90
13322;DHT22;6730;46.248;6.930;2023-11-21T09:23:44;6.20;99.90
13322;DHT22;6730;46.248;6.930;2023-11-21T09:26:10;6.10;99.90
13322;DHT22;6730;46.248;6.930;2023-11-21T09:28:36;6.10;99.90
13322;DHT22;6730;46.248;6.930;2023-11-21T09:31:06;6.10;99.90
13322;DHT22;6730;46.248;6.930;2023-11-21T09:33:35;6.10;99.90
13322;DHT22;6730;46.248;6.930;2023-11-21T09:36:00;6.10;99.90
13322;DHT22;6730;46.248;6.930;2023-11-21T09:38:26;6.10;99.90
13322;DHT22;6730;46.248;6.930;2023-11-21T09:40:54;6.10;99.90
13322;DHT22;6730;46.248;6.930;2023-11-21T09:43:21;6.10;99.90
13322;DHT22;6730;46.248;6.930;2023-11-21T09:45:52;6.00;99.90
13322;DHT22;6730;46.248;6.930;2023-11-21T09:48:20;6.10;99.90
13322;DHT22;6730;46.248;6.930;2023-11-21T09:50:47;6.00;99.90
13322;DHT22;6730;46.248;6.930;2023-11-21T09:53:19;6.00;99.90
13322;DHT22;6730;46.248;6.930;2023-11-21T09:55:52;6.00;99.90
13322;DHT22;6730;46.248;6.930;2023-11-21T09:58:18;6.00;99.90
13322;DHT22;6730;46.248;6.930;2023-11-21T10:00:46;6.00;99.90
13322;DHT22;6730;46.248;6.930;2023-11-21T10:03:13;6.10;99.90
13322;DHT22;6730;46.248;6.930;2023-11-21T10:05:39;6.10;99.90
13322;DHT22;6730;46.248;6.930;2023-11-21T10:08:08;6.20;99.90
13322;DHT22;6730;46.248;6.930;2023-11-21T10:10:43;6.20;99.90
13322;DHT22;6730;46.248;6.930;2023-11-21T10:13:15;6.10;99.90
13322;DHT22;6730;46.248;6.930;2023-11-21T10:15:43;6.10;99.90
13322;DHT22;6730;46.248;6.930;2023-11-21T10:18:14;6.20;99.90
13322;DHT22;6730;46.248;6.930;2023-11-21T10:20:44;6.40;99.90
13322;DHT22;6730;46.248;6.930;2023-11-21T10:23:12;6.30;99.90
13322;DHT22;6730;46.248;6.930;2023-11-21T10:25:38;6.50;99.90
13322;DHT22;6730;46.248;6.930;2023-11-21T10:28:04;6.90;99.90
13322;DHT22;6730;46.248;6.930;2023-11-21T10:30:36;7.30;99.90
13322;DHT22;6730;46.248;6.930;2023-11-21T10:33:04;7.30;99.90
13322;DHT22;6730;46.248;6.930;2023-11-21T10:35:45;7.50;99.90
13322;DHT22;6730;46.248;6.930;2023-11-21T10:38:19;7.70;99.90
13322;DHT22;6730;46.248;6.930;2023-11-21T10:40:48;7.80;99.90
13322;DHT22;6730;46.248;6.930;2023-11-21T10:43:15;8.00;99.90
13322;DHT22;6730;46.248;6.930;2023-11-21T10:45:41;8.20;99.90
13322;DHT22;6730;46.248;6.930;2023-11-21T10:48:14;8.40;99.90
13322;DHT22;6730;46.248;6.930;2023-11-21T10:50:41;8.20;99.90
13322;DHT22;6730;46.248;6.930;2023-11-21T10:53:08;8.10;99.90
13322;DHT22;6730;46.248;6.930;2023-11-21T10:55:34;8.20;99.90
13322;DHT22;6730;46.248;6.930;2023-11-21T10:58:01;7.70;99.90
13322;DHT22;6730;46.248;6.930;2023-11-21T11:00:28;7.10;99.90
13322;DHT22;6730;46.248;6.930;2023-11-21T11:02:55;6.80;99.90
13322;DHT22;6730;46.248;6.930;2023-11-21T11:05:23;6.50;99.90
13322;DHT22;6730;46.248;6.930;2023-11-21T11:10:28;6.50;99.90
13322;DHT22;6730;46.248;6.930;2023-11-21T11:12:55;6.70;99.90
13322;DHT22;6730;46.248;6.930;2023-11-21T11:15:23;6.80;99.90
13322;DHT22;6730;46.248;6.930;2023-11-21T11:17:49;6.90;99.90
13322;DHT22;6730;46.248;6.930;2023-11-21T11:20:16;6.90;99.90
13322;DHT22;6730;46.248;6.930;2023-11-21T11:28:21;7.40;99.90
13322;DHT22;6730;46.248;6.930;2023-11-21T11:33:51;7.20;99.90
13322;DHT22;6730;46.248;6.930;2023-11-21T11:36:49;7.60;99.90
13322;DHT22;6730;46.248;6.930;2023-11-21T11:39:39;7.30;99.90
13322;DHT22;6730;46.248;6.930;2023-11-21T11:42:08;7.60;99.90
13322;DHT22;6730;46.248;6.930;2023-11-21T11:47:31;7.80;99.90
13322;DHT22;6730;46.248;6.930;2023-11-21T11:50:09;7.40;99.90
13322;DHT22;6730;46.248;6.930;2023-11-21T11:53:27;7.30;99.90
13322;DHT22;6730;46.248;6.930;2023-11-21T11:55:29;7.40;99.90
13322;DHT22;6730;46.248;6.930;2023-11-21T11:57:56;7.50;99.90
13322;DHT22;6730;46.248;6.930;2023-11-21T12:02:57;7.60;99.90
13322;DHT22;6730;46.248;6.930;2023-11-21T12:05:26;7.60;99.90
13322;DHT22;6730;46.248;6.930;2023-11-21T12:07:56;7.60;99.90
13322;DHT22;6730;46.248;6.930;2023-11-21T12:10:28;7.20;99.90
13322;DHT22;6730;46.248;6.930;2023-11-21T12:12:56;7.10;99.90
13322;DHT22;6730;46.248;6.930;2023-11-21T12:15:22;6.90;99.90
13322;DHT22;6730;46.248;6.930;2023-11-21T12:17:49;6.90;99.90
13322;DHT22;6730;46.248;6.930;2023-11-21T12:20:20;6.90;99.90
13322;DHT22;6730;46.248;6.930;2023-11-21T12:22:47;7.00;99.90
13322;DHT22;6730;46.248;6.930;2023-11-21T12:25:14;6.90;99.90
13322;DHT22;6730;46.248;6.930;2023-11-21T12:27:42;7.20;99.90
13322;DHT22;6730;46.248;6.930;2023-11-21T12:30:09;7.10;99.90
13322;DHT22;6730;46.248;6.930;2023-11-21T12:32:42;7.00;99.90
13322;DHT22;6730;46.248;6.930;2023-11-21T12:35:09;7.20;99.90
13322;DHT22;6730;46.248;6.930;2023-11-21T12:37:40;7.30;99.90
13322;DHT22;6730;46.248;6.930;2023-11-21T12:40:06;7.40;99.90
13322;DHT22;6730;46.248;6.930;2023-11-21T12:42:52;7.40;99.90
13322;DHT22;6730;46.248;6.930;2023-11-21T12:45:23;7.40;99.90
13322;DHT22;6730;46.248;6.930;2023-11-21T12:50:21;7.40;99.90
13322;DHT22;6730;46.248;6.930;2023-11-21T12:52:50;7.40;99.90
13322;DHT22;6730;46.248;6.930;2023-11-21T12:55:22;7.40;99.90
13322;DHT22;6730;46.248;6.930;2023-11-21T12:57:50;7.50;99.90
13322;DHT22;6730;46.248;6.930;2023-11-21T13:00:34;7.40;99.90
13322;DHT22;6730;46.248;6.930;2023-11-21T13:03:06;7.50;99.90
13322;DHT22;6730;46.248;6.930;2023-11-21T13:05:34;7.40;99.90
13322;DHT22;6730;46.248;6.930;2023-11-21T13:08:03;7.40;99.90
13322;DHT22;6730;46.248;6.930;2023-11-21T13:10:31;7.30;99.90
13322;DHT22;6730;46.248;6.930;2023-11-21T13:12:58;7.60;99.90
13322;DHT22;6730;46.248;6.930;2023-11-21T13:15:26;8.00;99.90
13322;DHT22;6730;46.248;6.930;2023-11-21T13:17:53;8.10;99.90
13322;DHT22;6730;46.248;6.930;2023-11-21T13:20:23;8.30;99.90
13322;DHT22;6730;46.248;6.930;2023-11-21T13:22:54;8.60;99.90
13322;DHT22;6730;46.248;6.930;2023-11-21T13:25:23;8.50;99.90
13322;DHT22;6730;46.248;6.930;2023-11-21T13:27:49;8.50;99.90
13322;DHT22;6730;46.248;6.930;2023-11-21T13:30:16;8.10;99.90
13322;DHT22;6730;46.248;6.930;2023-11-21T13:32:43;7.70;99.90
13322;DHT22;6730;46.248;6.930;2023-11-21T13:35:09;7.80;99.90
13322;DHT22;6730;46.248;6.930;2023-11-21T13:37:43;8.20;99.90
13322;DHT22;6730;46.248;6.930;2023-11-21T13:40:11;8.60;99.90
13322;DHT22;6730;46.248;6.930;2023-11-21T13:42:40;8.80;99.90
13322;DHT22;6730;46.248;6.930;2023-11-21T13:45:07;8.90;99.90
13322;DHT22;6730;46.248;6.930;2023-11-21T13:47:32;8.90;99.90
13322;DHT22;6730;46.248;6.930;2023-11-21T13:49:59;9.10;99.90
13322;DHT22;6730;46.248;6.930;2023-11-21T13:52:26;9.10;99.90
13322;DHT22;6730;46.248;6.930;2023-11-21T13:54:53;9.10;99.90
13322;DHT22;6730;46.248;6.930;2023-11-21T13:57:19;9.10;99.90
13322;DHT22;6730;46.248;6.930;2023-11-21T13:59:46;9.10;99.90
13322;DHT22;6730;46.248;6.930;2023-11-21T14:02:11;9.30;99.90
13322;DHT22;6730;46.248;6.930;2023-11-21T14:04:43;9.20;99.90
13322;DHT22;6730;46.248;6.930;2023-11-21T14:07:20;9.20;99.90
13322;DHT22;6730;46.248;6.930;2023-11-21T14:09:52;8.50;99.90
13322;DHT22;6730;46.248;6.930;2023-11-21T14:12:18;8.20;99.90
13322;DHT22;6730;46.248;6.930;2023-11-21T14:14:44;8.30;99.90
13322;DHT22;6730;46.248;6.930;2023-11-21T14:17:11;8.50;99.90
13322;DHT22;6730;46.248;6.930;2023-11-21T14:19:36;8.60;99.90
13322;DHT22;6730;46.248;6.930;2023-11-21T14:22:06;8.70;99.90
13322;DHT22;6730;46.248;6.930;2023-11-21T14:24:33;8.60;99.90
13322;DHT22;6730;46.248;6.930;2023-11-21T14:26:58;8.00;99.90
13322;DHT22;6730;46.248;6.930;2023-11-21T14:29:25;7.60;99.90
13322;DHT22;6730;46.248;6.930;2023-11-21T14:31:50;7.20;99.90
13322;DHT22;6730;46.248;6.930;2023-11-21T14:34:17;7.00;99.90
13322;DHT22;6730;46.248;6.930;2023-11-21T14:36:43;6.80;99.90
13322;DHT22;6730;46.248;6.930;2023-11-21T14:39:10;6.70;99.90
13322;DHT22;6730;46.248;6.930;2023-11-21T14:41:46;6.60;99.90
13322;DHT22;6730;46.248;6.930;2023-11-21T14:44:12;6.60;99.90
13322;DHT22;6730;46.248;6.930;2023-11-21T14:46:39;6.70;99.90
13322;DHT22;6730;46.248;6.930;2023-11-21T14:49:08;7.00;99.90
13322;DHT22;6730;46.248;6.930;2023-11-21T14:51:51;7.40;99.90
13322;DHT22;6730;46.248;6.930;2023-11-21T14:54:30;7.70;99.90
13322;DHT22;6730;46.248;6.930;2023-11-21T14:57:12;7.90;99.90
13322;DHT22;6730;46.248;6.930;2023-11-21T14:59:44;8.30;99.90
13322;DHT22;6730;46.248;6.930;2023-11-21T15:02:20;8.50;99.90
13322;DHT22;6730;46.248;6.930;2023-11-21T15:05:08;8.60;99.90
13322;DHT22;6730;46.248;6.930;2023-11-21T15:07:40;8.80;99.90
13322;DHT22;6730;46.248;6.930;2023-11-21T15:10:06;8.80;99.90
13322;DHT22;6730;46.248;6.930;2023-11-21T15:12:36;8.80;99.90
13322;DHT22;6730;46.248;6.930;2023-11-21T15:15:04;8.80;99.90
13322;DHT22;6730;46.248;6.930;2023-11-21T15:17:32;8.90;99.90
13322;DHT22;6730;46.248;6.930;2023-11-21T15:19:58;9.00;99.90
13322;DHT22;6730;46.248;6.930;2023-11-21T15:22:25;9.00;99.90
13322;DHT22;6730;46.248;6.930;2023-11-21T15:24:52;9.10;99.90
13322;DHT22;6730;46.248;6.930;2023-11-21T15:27:19;9.10;99.90
13322;DHT22;6730;46.248;6.930;2023-11-21T15:29:45;9.00;99.90
13322;DHT22;6730;46.248;6.930;2023-11-21T15:32:12;8.90;99.90
13322;DHT22;6730;46.248;6.930;2023-11-21T15:34:38;9.00;99.90
13322;DHT22;6730;46.248;6.930;2023-11-21T15:37:06;8.70;99.90
13322;DHT22;6730;46.248;6.930;2023-11-21T15:39:35;8.50;99.90
13322;DHT22;6730;46.248;6.930;2023-11-21T15:42:00;8.50;99.90
13322;DHT22;6730;46.248;6.930;2023-11-21T15:44:26;8.40;99.90
13322;DHT22;6730;46.248;6.930;2023-11-21T15:46:55;8.30;99.90
13322;DHT22;6730;46.248;6.930;2023-11-21T15:49:21;8.00;99.90
13322;DHT22;6730;46.248;6.930;2023-11-21T15:51:50;8.00;99.90
13322;DHT22;6730;46.248;6.930;2023-11-21T15:54:20;8.20;99.90
13322;DHT22;6730;46.248;6.930;2023-11-21T15:56:49;8.20;99.90
13322;DHT22;6730;46.248;6.930;2023-11-21T15:59:15;7.90;99.90
13322;DHT22;6730;46.248;6.930;2023-11-21T16:01:42;7.90;99.90
13322;DHT22;6730;46.248;6.930;2023-11-21T16:04:13;8.00;99.90
13322;DHT22;6730;46.248;6.930;2023-11-21T16:06:46;8.10;99.90
13322;DHT22;6730;46.248;6.930;2023-11-21T16:09:12;8.10;99.90
13322;DHT22;6730;46.248;6.930;2023-11-21T16:11:47;8.30;99.90
13322;DHT22;6730;46.248;6.930;2023-11-21T16:14:13;8.30;99.90
13322;DHT22;6730;46.248;6.930;2023-11-21T16:16:45;8.10;99.90
13322;DHT22;6730;46.248;6.930;2023-11-21T16:19:10;8.10;99.90
13322;DHT22;6730;46.248;6.930;2023-11-21T16:21:37;8.30;99.90
13322;DHT22;6730;46.248;6.930;2023-11-21T16:24:04;8.40;99.90
13322;DHT22;6730;46.248;6.930;2023-11-21T16:26:30;8.40;99.90